Terminal Aerodrome Forecast
Issued by NWS Twin Cities, MN

Home | Current Version | Previous Version | Text Only | Print | Product List | Glossary On
Versions: 1 2 3 4 5 6 7 8 9 10 11 12 13 14 15 16 17 18 19 20 21 22 23 24 25
283
FTUS43 KMPX 302334
TAFMSP
TAF
KMSP 302334Z 0100/0206 05017G27KT P6SM -SHRA SCT020 OVC035
     FM010200 05016G25KT 6SM -SHRA BR SCT015 OVC025
     FM010400 04014G24KT 6SM -SHRA BR SCT008 OVC015
     FM010600 03013G22KT 4SM -RA BR OVC008
     FM011500 35012G20KT 3SM -RA BR OVC008
     FM012300 33012KT 6SM -RA BR OVC013=

USA.gov is the U.S. government's official web portal to all federal, state and local government web resources and services.